createdAt,value
2018-05-27T00:00:42.016Z,21.00
2018-05-27T00:03:09.427Z,20.93
2018-05-27T00:05:36.856Z,20.88
2018-05-27T00:08:04.264Z,20.84
2018-05-27T00:10:31.705Z,20.80
2018-05-27T00:12:59.132Z,20.75
2018-05-27T00:15:26.548Z,20.70
2018-05-27T00:17:53.972Z,20.67
2018-05-27T00:20:21.398Z,20.64
2018-05-27T00:22:48.805Z,20.61
2018-05-27T00:25:16.224Z,20.59
2018-05-27T00:27:43.628Z,20.54
2018-05-27T00:30:11.060Z,20.46
2018-05-27T00:32:38.468Z,20.40
2018-05-27T00:35:05.875Z,20.34
2018-05-27T00:37:33.298Z,20.31
2018-05-27T00:40:00.697Z,20.26
2018-05-27T00:42:28.119Z,20.21
2018-05-27T00:44:55.527Z,20.16
2018-05-27T00:47:22.927Z,20.14
2018-05-27T00:49:50.403Z,20.10
2018-05-27T00:52:17.760Z,20.06
2018-05-27T00:54:45.182Z,20.02
2018-05-27T00:57:12.588Z,19.97
2018-05-27T00:59:39.984Z,19.87
2018-05-27T01:02:07.476Z,19.72
2018-05-27T01:04:34.887Z,19.63
2018-05-27T01:07:02.288Z,19.59
2018-05-27T01:09:29.708Z,19.55
2018-05-27T01:11:57.116Z,19.49
2018-05-27T01:14:24.522Z,19.45
2018-05-27T01:16:51.937Z,19.42
2018-05-27T01:19:19.331Z,19.41
2018-05-27T01:21:47.012Z,19.39
2018-05-27T01:24:14.428Z,19.33
2018-05-27T01:26:41.819Z,19.29
2018-05-27T01:29:09.240Z,19.28
2018-05-27T01:31:36.653Z,19.26
2018-05-27T01:34:04.078Z,19.23
2018-05-27T01:36:31.485Z,19.17
2018-05-27T01:38:58.891Z,19.16
2018-05-27T01:41:26.303Z,19.15
2018-05-27T01:43:53.711Z,19.18
2018-05-27T01:46:21.132Z,19.18
2018-05-27T01:48:48.571Z,19.05
2018-05-27T01:51:15.971Z,18.99
2018-05-27T01:53:43.405Z,19.00
2018-05-27T01:56:10.811Z,19.01
2018-05-27T01:58:38.219Z,19.02
2018-05-27T02:01:06.219Z,19.00
2018-05-27T02:03:33.618Z,18.90
2018-05-27T02:06:01.024Z,18.72
2018-05-27T02:08:28.445Z,18.68
2018-05-27T02:10:55.847Z,18.65
2018-05-27T02:13:23.269Z,18.60
2018-05-27T02:15:50.679Z,18.56
2018-05-27T02:18:18.420Z,18.51
2018-05-27T02:20:45.829Z,18.49
2018-05-27T02:23:13.227Z,18.44
2018-05-27T02:25:40.653Z,18.39
2018-05-27T02:28:08.077Z,18.34
2018-05-27T02:30:35.489Z,18.33
2018-05-27T02:33:02.904Z,18.32
2018-05-27T02:35:30.316Z,18.30
2018-05-27T02:37:57.739Z,18.27
2018-05-27T02:40:25.140Z,18.25
2018-05-27T02:42:52.535Z,18.22
2018-05-27T02:45:19.961Z,18.21
2018-05-27T02:47:47.380Z,18.19
2018-05-27T02:50:14.785Z,18.16
2018-05-27T02:52:42.200Z,18.10
2018-05-27T02:55:09.604Z,17.94
2018-05-27T02:57:37.021Z,17.85
2018-05-27T03:00:04.453Z,17.85
2018-05-27T03:02:31.849Z,17.86
2018-05-27T03:04:59.268Z,17.86
2018-05-27T03:07:26.672Z,17.81
2018-05-27T03:09:54.079Z,17.78
2018-05-27T03:12:21.497Z,17.76
2018-05-27T03:14:48.900Z,17.78
2018-05-27T03:17:16.685Z,17.80
2018-05-27T03:19:44.109Z,17.83
2018-05-27T03:22:11.519Z,17.85
2018-05-27T03:24:38.944Z,17.81
2018-05-27T03:27:06.366Z,17.82
2018-05-27T03:29:33.772Z,17.84
2018-05-27T03:32:01.184Z,17.85
2018-05-27T03:34:28.644Z,17.85
2018-05-27T03:36:56.077Z,17.85
2018-05-27T03:39:23.539Z,17.88
2018-05-27T03:41:51.021Z,17.93
2018-05-27T03:44:18.498Z,17.94
2018-05-27T03:46:45.904Z,17.95
2018-05-27T03:49:13.313Z,17.96
2018-05-27T03:51:40.737Z,17.91
2018-05-27T03:54:08.136Z,17.86
2018-05-27T03:56:35.548Z,17.81
2018-05-27T03:59:03.815Z,17.80
2018-05-27T04:01:31.437Z,17.80
2018-05-27T04:04:10.608Z,17.69
2018-05-27T04:06:49.697Z,17.77
2018-05-27T04:09:17.095Z,17.86
2018-05-27T04:11:44.668Z,17.93
2018-05-27T04:14:12.071Z,18.06
2018-05-27T04:16:39.480Z,18.20
2018-05-27T04:19:06.899Z,18.30
2018-05-27T04:21:34.295Z,18.43
2018-05-27T04:24:01.720Z,18.47
2018-05-27T04:26:29.150Z,18.62
2018-05-27T04:28:56.594Z,19.04
2018-05-27T04:31:24.120Z,19.67
2018-05-27T04:33:51.575Z,20.32
2018-05-27T04:36:19.006Z,20.91
2018-05-27T04:38:46.427Z,21.41
2018-05-27T04:41:13.849Z,21.92
2018-05-27T04:43:41.261Z,22.42
2018-05-27T04:46:08.680Z,22.90
2018-05-27T04:48:36.117Z,23.29
2018-05-27T04:51:03.540Z,22.97
2018-05-27T04:53:30.956Z,22.76
2018-05-27T04:55:58.355Z,22.40
2018-05-27T04:58:25.772Z,22.28
2018-05-27T05:00:53.175Z,21.99
2018-05-27T05:03:20.608Z,21.81
2018-05-27T05:05:48.016Z,21.70
2018-05-27T05:08:15.432Z,21.82
2018-05-27T05:10:42.859Z,22.34
2018-05-27T05:13:10.261Z,22.91
2018-05-27T05:15:37.661Z,23.50
2018-05-27T05:18:05.083Z,24.13
2018-05-27T05:20:32.491Z,24.56
2018-05-27T05:22:59.910Z,24.98
2018-05-27T05:25:27.322Z,25.53
2018-05-27T05:27:54.735Z,25.86
2018-05-27T05:30:22.190Z,26.28
2018-05-27T05:32:49.636Z,26.70
2018-05-27T05:35:17.079Z,27.12
2018-05-27T05:37:44.495Z,27.54
2018-05-27T05:40:12.252Z,28.04
2018-05-27T05:42:39.664Z,28.44
2018-05-27T05:45:07.074Z,28.71
2018-05-27T05:47:34.498Z,28.74
2018-05-27T05:50:01.925Z,29.10
2018-05-27T05:52:29.498Z,29.34
2018-05-27T05:54:56.916Z,29.56
2018-05-27T05:57:24.324Z,29.54
2018-05-27T05:59:51.751Z,29.71
2018-05-27T06:02:19.148Z,29.82
2018-05-27T06:04:46.573Z,29.86
2018-05-27T06:07:13.984Z,29.99
2018-05-27T06:09:41.388Z,30.21
2018-05-27T06:12:08.820Z,30.50
2018-05-27T06:14:36.224Z,30.70
2018-05-27T06:17:03.988Z,30.44
2018-05-27T06:19:31.420Z,30.34
2018-05-27T06:21:58.816Z,30.58
2018-05-27T06:24:26.231Z,30.87
2018-05-27T06:26:53.652Z,30.42
2018-05-27T06:29:21.056Z,30.70
2018-05-27T06:31:48.717Z,30.91
2018-05-27T06:34:16.124Z,31.05
2018-05-27T06:36:43.528Z,31.03
2018-05-27T06:39:11.211Z,31.31
2018-05-27T06:41:38.632Z,31.44
2018-05-27T06:44:06.047Z,31.48
2018-05-27T06:46:33.452Z,31.42
2018-05-27T06:49:00.877Z,31.40
2018-05-27T06:51:28.280Z,31.53
2018-05-27T06:53:55.709Z,31.84
2018-05-27T06:56:23.412Z,32.10
2018-05-27T06:58:50.839Z,32.17
2018-05-27T07:01:18.263Z,31.93
2018-05-27T07:03:45.697Z,31.68
2018-05-27T07:06:13.103Z,31.60
2018-05-27T07:08:40.524Z,31.97
2018-05-27T07:11:07.931Z,32.25
2018-05-27T07:13:35.339Z,32.22
2018-05-27T07:16:02.761Z,32.18
2018-05-27T07:18:30.192Z,32.25
2018-05-27T07:20:57.751Z,31.93
2018-05-27T07:23:25.160Z,31.95
2018-05-27T07:25:52.569Z,31.83
2018-05-27T07:28:19.989Z,31.81
2018-05-27T07:30:47.397Z,32.06
2018-05-27T07:33:14.822Z,32.24
2018-05-27T07:35:42.225Z,32.16
2018-05-27T07:38:09.892Z,32.01
2018-05-27T07:40:37.298Z,32.10
2018-05-27T07:43:04.700Z,32.21
2018-05-27T07:45:32.112Z,32.06
2018-05-27T07:47:59.520Z,32.07
2018-05-27T07:50:26.928Z,32.16
2018-05-27T07:52:54.348Z,32.08
2018-05-27T07:55:21.824Z,32.22
2018-05-27T07:57:49.229Z,31.86
2018-05-27T08:00:16.667Z,31.69
2018-05-27T08:02:44.089Z,31.63
2018-05-27T08:05:11.662Z,31.67
2018-05-27T08:07:39.073Z,31.68
2018-05-27T08:10:06.479Z,31.49
2018-05-27T08:12:33.899Z,31.48
2018-05-27T08:15:01.316Z,31.58
2018-05-27T08:17:28.755Z,31.40
2018-05-27T08:19:56.504Z,31.28
2018-05-27T08:22:23.911Z,30.91
2018-05-27T08:24:51.391Z,30.93
2018-05-27T08:27:18.813Z,31.09
2018-05-27T08:29:46.288Z,31.25
2018-05-27T08:32:13.709Z,31.04
2018-05-27T08:34:41.124Z,31.06
2018-05-27T08:37:08.546Z,30.54
2018-05-27T08:39:35.960Z,30.46
2018-05-27T08:42:03.392Z,30.42
2018-05-27T08:44:30.818Z,29.93
2018-05-27T08:46:58.250Z,30.01
2018-05-27T08:49:25.692Z,29.60
2018-05-27T08:51:53.658Z,29.57
2018-05-27T08:54:23.197Z,29.45
2018-05-27T08:56:50.749Z,29.45
2018-05-27T08:59:19.069Z,29.39
2018-05-27T09:01:46.835Z,29.44
2018-05-27T09:04:14.493Z,29.58
2018-05-27T09:06:43.217Z,29.72
2018-05-27T09:09:10.880Z,29.82
2018-05-27T09:11:38.303Z,30.17
2018-05-27T09:14:05.712Z,30.24
2018-05-27T09:16:35.187Z,30.31
2018-05-27T09:19:02.621Z,30.30
2018-05-27T09:21:30.080Z,30.18
2018-05-27T09:23:57.515Z,30.17
2018-05-27T09:26:24.928Z,30.46
2018-05-27T09:28:52.467Z,30.55
2018-05-27T09:31:20.035Z,30.78
2018-05-27T09:33:47.467Z,31.11
2018-05-27T09:36:14.883Z,31.05
2018-05-27T09:38:42.304Z,30.97
2018-05-27T09:41:10.737Z,31.08
2018-05-27T09:43:38.147Z,31.42
2018-05-27T09:46:05.556Z,31.67
2018-05-27T09:48:32.987Z,31.77
2018-05-27T09:51:00.408Z,32.01
2018-05-27T09:53:27.828Z,32.07
2018-05-27T09:55:55.234Z,32.24
2018-05-27T09:58:22.649Z,32.16
2018-05-27T10:00:50.151Z,32.23
2018-05-27T10:03:17.591Z,32.17
2018-05-27T10:05:45.046Z,31.47
2018-05-27T10:08:12.445Z,31.22
2018-05-27T10:10:39.877Z,30.88
2018-05-27T10:13:07.312Z,30.46
2018-05-27T10:15:35.508Z,29.81
2018-05-27T10:18:03.043Z,29.59
2018-05-27T10:20:30.463Z,29.38
2018-05-27T10:22:57.891Z,29.05
2018-05-27T10:25:25.321Z,28.99
2018-05-27T10:27:52.827Z,29.01
2018-05-27T10:30:20.235Z,28.87
2018-05-27T10:32:47.772Z,28.88
2018-05-27T10:35:15.136Z,28.75
2018-05-27T10:37:42.543Z,28.75
2018-05-27T10:40:09.969Z,28.82
2018-05-27T10:42:37.427Z,28.68
2018-05-27T10:45:04.853Z,28.33
2018-05-27T10:47:32.283Z,28.39
2018-05-27T10:49:59.729Z,28.51
2018-05-27T10:52:27.245Z,28.49
2018-05-27T10:54:54.691Z,28.47
2018-05-27T10:57:22.131Z,28.53
2018-05-27T10:59:49.593Z,28.46
2018-05-27T11:02:16.980Z,28.50
2018-05-27T11:04:44.376Z,28.49
2018-05-27T11:07:11.798Z,28.64
2018-05-27T11:09:39.225Z,28.66
2018-05-27T11:12:06.648Z,28.71
2018-05-27T11:14:34.169Z,28.96
2018-05-27T11:17:01.623Z,29.07
2018-05-27T11:19:29.071Z,28.99
2018-05-27T11:21:56.574Z,28.85
2018-05-27T11:24:24.097Z,28.78
2018-05-27T11:26:51.834Z,28.69
2018-05-27T11:29:19.852Z,28.71
2018-05-27T11:31:47.723Z,28.66
2018-05-27T11:34:16.057Z,28.69
2018-05-27T11:36:43.568Z,28.63
2018-05-27T11:39:10.997Z,28.70
2018-05-27T11:41:38.413Z,28.68
2018-05-27T11:44:05.836Z,28.51
2018-05-27T11:46:33.252Z,28.41
2018-05-27T11:49:00.759Z,28.51
2018-05-27T11:51:28.200Z,28.68
2018-05-27T11:53:55.699Z,28.77
2018-05-27T11:56:23.206Z,28.81
2018-05-27T11:58:50.650Z,28.87
2018-05-27T12:01:18.068Z,28.90
2018-05-27T12:03:45.870Z,28.90
2018-05-27T12:06:13.288Z,28.93
2018-05-27T12:08:40.697Z,28.94
2018-05-27T12:11:08.120Z,28.95
2018-05-27T12:13:35.532Z,28.89
2018-05-27T12:16:03.000Z,28.94
2018-05-27T12:18:30.410Z,28.92
2018-05-27T12:20:57.829Z,29.00
2018-05-27T12:23:25.342Z,28.94
2018-05-27T12:25:52.798Z,28.87
2018-05-27T12:28:20.218Z,28.83
2018-05-27T12:30:47.649Z,28.93
2018-05-27T12:33:15.072Z,29.09
2018-05-27T12:35:42.500Z,29.10
2018-05-27T12:38:09.912Z,29.18
2018-05-27T12:40:37.332Z,29.29
2018-05-27T12:43:04.755Z,29.41
2018-05-27T12:45:32.187Z,29.17
2018-05-27T12:47:59.652Z,29.16
2018-05-27T12:50:27.104Z,29.15
2018-05-27T12:52:54.570Z,29.12
2018-05-27T12:55:22.042Z,29.23
2018-05-27T12:57:49.468Z,29.35
2018-05-27T13:00:16.894Z,29.24
2018-05-27T13:02:44.304Z,29.26
2018-05-27T13:05:11.743Z,29.31
2018-05-27T13:07:39.152Z,29.17
2018-05-27T13:10:06.568Z,29.25
2018-05-27T13:12:34.005Z,29.31
2018-05-27T13:15:01.460Z,29.44
2018-05-27T13:17:28.918Z,29.52
2018-05-27T13:19:56.401Z,29.57
2018-05-27T13:22:23.887Z,29.61
2018-05-27T13:24:51.330Z,29.57
2018-05-27T13:27:18.727Z,29.61
2018-05-27T13:29:46.253Z,29.65
2018-05-27T13:32:13.668Z,29.55
2018-05-27T13:34:41.111Z,29.49
2018-05-27T13:37:08.543Z,29.51
2018-05-27T13:39:35.944Z,29.60
2018-05-27T13:42:03.631Z,29.59
2018-05-27T13:44:31.039Z,29.62
2018-05-27T13:46:58.504Z,29.73
2018-05-27T13:49:25.979Z,29.78
2018-05-27T13:51:53.548Z,29.88
2018-05-27T13:54:21.114Z,29.96
2018-05-27T13:56:48.559Z,29.93
2018-05-27T13:59:15.972Z,29.76
2018-05-27T14:01:43.404Z,29.75
2018-05-27T14:04:10.817Z,29.82
2018-05-27T14:06:38.253Z,29.83
2018-05-27T14:09:05.679Z,29.86
2018-05-27T14:11:33.124Z,29.94
2018-05-27T14:14:00.633Z,29.97
2018-05-27T14:16:28.184Z,30.02
2018-05-27T14:18:55.676Z,30.04
2018-05-27T14:21:23.148Z,30.13
2018-05-27T14:23:50.822Z,30.13
2018-05-27T14:26:18.239Z,30.00
2018-05-27T14:28:45.698Z,29.97
2018-05-27T14:31:13.184Z,29.83
2018-05-27T14:33:40.599Z,29.61
2018-05-27T14:36:08.015Z,29.56
2018-05-27T14:38:35.475Z,29.54
2018-05-27T14:41:02.976Z,29.66
2018-05-27T14:43:30.461Z,29.62
2018-05-27T14:45:57.938Z,29.58
2018-05-27T14:48:25.368Z,29.49
2018-05-27T14:50:52.887Z,29.49
2018-05-27T14:53:20.325Z,29.53
2018-05-27T14:55:47.760Z,29.54
2018-05-27T14:58:15.164Z,29.47
2018-05-27T15:00:42.877Z,29.46
2018-05-27T15:03:10.285Z,29.50
2018-05-27T15:05:37.699Z,29.57
2018-05-27T15:08:05.421Z,29.50
2018-05-27T15:10:32.831Z,29.44
2018-05-27T15:13:00.318Z,29.31
2018-05-27T15:15:27.830Z,29.14
2018-05-27T15:17:55.360Z,29.00
2018-05-27T15:20:22.874Z,28.85
2018-05-27T15:22:50.350Z,28.77
2018-05-27T15:25:17.877Z,28.71
2018-05-27T15:27:45.249Z,28.68
2018-05-27T15:30:12.666Z,28.64
2018-05-27T15:32:40.094Z,28.63
2018-05-27T15:35:07.516Z,28.51
2018-05-27T15:37:35.225Z,28.47
2018-05-27T15:40:02.641Z,28.50
2018-05-27T15:42:30.076Z,28.46
2018-05-27T15:44:57.603Z,28.50
2018-05-27T15:47:25.050Z,28.46
2018-05-27T15:49:52.584Z,28.45
2018-05-27T15:52:19.999Z,28.30
2018-05-27T15:54:47.501Z,28.08
2018-05-27T15:57:14.928Z,27.94
2018-05-27T15:59:42.362Z,27.70
2018-05-27T16:02:09.762Z,27.53
2018-05-27T16:09:29.630Z,26.92
2018-05-27T16:11:57.352Z,26.59
2018-05-27T16:14:24.854Z,26.22
2018-05-27T16:16:52.337Z,25.54
2018-05-27T16:19:19.786Z,24.68
2018-05-27T16:21:47.218Z,23.63
2018-05-27T16:24:14.786Z,22.95
2018-05-27T16:26:42.188Z,22.63
2018-05-27T16:29:09.595Z,22.35
2018-05-27T16:31:37.024Z,22.14
2018-05-27T16:34:04.434Z,22.00
2018-05-27T16:36:31.874Z,21.87
2018-05-27T16:38:59.295Z,21.83
2018-05-27T16:41:26.741Z,21.80
2018-05-27T16:43:54.488Z,21.76
2018-05-27T16:46:21.958Z,21.76
2018-05-27T16:48:49.368Z,21.72
2018-05-27T16:51:17.128Z,21.71
2018-05-27T16:53:44.547Z,21.74
2018-05-27T16:56:11.978Z,21.83
2018-05-27T16:58:39.404Z,21.91
2018-05-27T17:01:06.835Z,22.00
2018-05-27T17:03:34.240Z,22.07
2018-05-27T17:06:01.660Z,22.07
2018-05-27T17:08:29.121Z,22.13
2018-05-27T17:10:56.707Z,22.20
2018-05-27T17:13:24.153Z,22.26
2018-05-27T17:15:51.842Z,22.30
2018-05-27T17:18:19.445Z,22.36
2018-05-27T17:20:46.892Z,22.41
2018-05-27T17:23:14.304Z,22.41
2018-05-27T17:25:41.729Z,22.37
2018-05-27T17:28:09.236Z,22.35
2018-05-27T17:30:36.619Z,22.28
2018-05-27T17:33:04.064Z,22.22
2018-05-27T17:35:31.481Z,22.19
2018-05-27T17:37:58.924Z,22.16
2018-05-27T17:40:26.402Z,22.16
2018-05-27T17:42:53.842Z,22.14
2018-05-27T17:45:21.364Z,22.16
2018-05-27T17:47:48.792Z,22.17
2018-05-27T17:50:16.224Z,22.14
2018-05-27T17:52:43.655Z,22.13
2018-05-27T17:55:11.064Z,22.13
2018-05-27T17:57:38.583Z,22.14
2018-05-27T18:00:06.009Z,22.15
2018-05-27T18:02:33.436Z,22.16
2018-05-27T18:05:00.897Z,22.18
2018-05-27T18:07:28.358Z,22.17
2018-05-27T18:09:55.885Z,22.17
2018-05-27T18:12:23.437Z,22.20
2018-05-27T18:14:51.021Z,22.21
2018-05-27T18:17:18.439Z,22.20
2018-05-27T18:19:45.856Z,22.22
2018-05-27T18:22:13.313Z,22.25
2018-05-27T18:24:40.738Z,22.23
2018-05-27T18:27:08.155Z,22.16
2018-05-27T18:29:35.584Z,22.14
2018-05-27T18:32:03.027Z,22.08
2018-05-27T18:34:30.468Z,22.00
2018-05-27T18:36:57.913Z,21.94
2018-05-27T18:39:25.359Z,21.93
2018-05-27T18:41:53.068Z,21.95
2018-05-27T18:44:20.556Z,21.94
2018-05-27T18:46:47.997Z,21.92
2018-05-27T18:49:15.453Z,21.87
2018-05-27T18:51:42.864Z,21.86
2018-05-27T18:54:10.301Z,21.82
2018-05-27T18:56:37.709Z,21.76
2018-05-27T18:59:05.191Z,21.73
2018-05-27T19:01:32.560Z,21.70
2018-05-27T19:04:00.014Z,21.63
2018-05-27T19:06:27.463Z,21.59
2018-05-27T19:08:54.948Z,21.56
2018-05-27T19:11:22.465Z,21.56
2018-05-27T19:13:49.888Z,21.51
2018-05-27T19:16:17.310Z,21.48
2018-05-27T19:18:44.846Z,21.47
2018-05-27T19:21:12.257Z,21.46
2018-05-27T19:23:39.668Z,21.38
2018-05-27T19:26:07.269Z,21.32
2018-05-27T19:28:34.684Z,21.28
2018-05-27T19:31:02.176Z,21.27
2018-05-27T19:33:29.672Z,21.23
2018-05-27T19:35:57.147Z,21.19
2018-05-27T19:38:24.599Z,21.09
2018-05-27T19:40:52.069Z,21.04
2018-05-27T19:43:19.492Z,21.08
2018-05-27T19:45:46.917Z,21.12
2018-05-27T19:48:14.358Z,21.15
2018-05-27T19:50:41.763Z,21.17
2018-05-27T19:53:09.197Z,21.13
2018-05-27T19:55:36.632Z,21.12
2018-05-27T19:58:04.064Z,21.11
2018-05-27T20:00:31.487Z,21.09
2018-05-27T20:02:58.902Z,21.08
2018-05-27T20:05:26.389Z,21.07
2018-05-27T20:07:53.849Z,21.07
2018-05-27T20:10:21.379Z,21.07
2018-05-27T20:12:48.803Z,21.02
2018-05-27T20:15:16.223Z,20.99
2018-05-27T20:17:44.095Z,20.99
2018-05-27T20:20:11.509Z,20.99
2018-05-27T20:22:38.923Z,20.99
2018-05-27T20:25:06.357Z,21.00
2018-05-27T20:27:33.845Z,20.99
2018-05-27T20:30:01.288Z,20.98
2018-05-27T20:32:28.831Z,20.97
2018-05-27T20:34:56.313Z,20.96
2018-05-27T20:37:23.821Z,20.98
2018-05-27T20:39:51.380Z,20.94
2018-05-27T20:42:18.813Z,20.83
2018-05-27T20:44:46.245Z,20.74
2018-05-27T20:47:13.660Z,20.77
2018-05-27T20:49:41.088Z,20.80
2018-05-27T20:52:08.547Z,20.80
2018-05-27T20:54:36.182Z,20.83
2018-05-27T20:57:03.693Z,20.86
2018-05-27T20:59:31.136Z,20.89
2018-05-27T21:01:58.660Z,20.90
2018-05-27T21:04:26.136Z,20.91
2018-05-27T21:06:54.003Z,20.91
2018-05-27T21:09:21.603Z,20.94
2018-05-27T21:11:49.101Z,20.95
2018-05-27T21:14:16.863Z,20.94
2018-05-27T21:16:44.281Z,20.93
2018-05-27T21:19:11.695Z,20.95
2018-05-27T21:21:39.149Z,20.97
2018-05-27T21:24:06.564Z,20.99
2018-05-27T21:26:34.104Z,21.01
2018-05-27T21:29:01.678Z,21.04
2018-05-27T21:31:29.127Z,21.05
2018-05-27T21:33:56.573Z,21.06
2018-05-27T21:36:24.046Z,21.03
2018-05-27T21:38:51.476Z,21.02
2018-05-27T21:41:18.913Z,21.01
2018-05-27T21:43:46.329Z,21.00
2018-05-27T21:46:14.092Z,20.98
2018-05-27T21:48:41.552Z,20.97
2018-05-27T21:51:09.027Z,20.98
2018-05-27T21:53:36.473Z,21.00
2018-05-27T21:56:03.902Z,21.02
2018-05-27T21:58:31.348Z,21.06
2018-05-27T22:00:58.808Z,21.10
2018-05-27T22:03:26.339Z,21.12
2018-05-27T22:05:53.827Z,21.14
2018-05-27T22:08:21.401Z,21.15
2018-05-27T22:10:48.852Z,21.18
2018-05-27T22:13:16.274Z,21.19
2018-05-27T22:15:43.704Z,21.13
2018-05-27T22:18:11.124Z,21.08
2018-05-27T22:20:38.699Z,21.04
2018-05-27T22:23:06.129Z,20.98
2018-05-27T22:25:33.535Z,20.95
2018-05-27T22:28:00.969Z,20.88
2018-05-27T22:30:28.441Z,20.86
2018-05-27T22:32:55.896Z,20.85
2018-05-27T22:35:23.401Z,20.84
2018-05-27T22:37:50.859Z,20.83
2018-05-27T22:40:18.294Z,20.83
2018-05-27T22:42:45.740Z,20.80
2018-05-27T22:45:13.187Z,20.79
2018-05-27T22:47:40.603Z,20.76
2018-05-27T22:50:08.019Z,20.71
2018-05-27T22:52:35.748Z,20.66
2018-05-27T22:55:03.169Z,20.64
2018-05-27T22:57:30.592Z,20.63
2018-05-27T22:59:58.176Z,20.61
2018-05-27T23:02:25.641Z,20.61
2018-05-27T23:04:53.118Z,20.58
2018-05-27T23:07:20.606Z,20.57
2018-05-27T23:09:48.052Z,20.57
2018-05-27T23:12:15.564Z,20.58
2018-05-27T23:14:42.983Z,20.58
2018-05-27T23:17:10.397Z,20.56
2018-05-27T23:19:38.077Z,20.54
2018-05-27T23:22:05.488Z,20.53
2018-05-27T23:24:32.908Z,20.51
2018-05-27T23:27:00.542Z,20.51
2018-05-27T23:29:27.986Z,20.49
2018-05-27T23:31:55.457Z,20.49
2018-05-27T23:34:22.930Z,20.51
2018-05-27T23:36:50.351Z,20.51
2018-05-27T23:39:17.799Z,20.48
2018-05-27T23:41:45.253Z,20.46
2018-05-27T23:44:12.661Z,20.46
2018-05-27T23:46:40.093Z,20.44
2018-05-27T23:49:07.529Z,20.41
2018-05-27T23:51:34.977Z,20.38
2018-05-27T23:54:02.389Z,20.34
2018-05-27T23:56:29.857Z,20.30
2018-05-27T23:58:57.331Z,20.27
